ETD1 OMAA-KJFK
Flight info
| Callsign | ETD1 |
|---|---|
| Flight time | N/A |
| Altitude | 34000 |
| Route | BOSEV N563 ALPOB L768 VATIM L550 NOVPA N697 MENLI L677 CVO L617 NABSI M872 METRU DCT ARLOS DCT DOBIX DCT SONAK DCT MORJA UA411 BNA UZ444 DAHRA UA411 MOS UM744 CARBO DCT GOLFO DCT OBAKA DCT UMUKA/N0488F360 DCT MGA DCT MAR DCT SVL M744 LASIB DCT BUSEN DCT ERPES/M085F360 DCT 41N020W 42N030W 4330N04000W/M085F380 45N050W DCT RAFIN/N0486F380 DCT KANNI DCT PLYMM PARCH4 |
| Aircraft | A35K/H-SDE2E3GHIJ3J4J5LM1ORWXY/LB1D1 |
Departure
| Time | 2026-04-30 08:33 |
|---|---|
| Airport | Zayed International Airport (OMAA) |
Arrival
| Time | N/A |
|---|---|
| Airport | John F. Kennedy International Airport (KJFK) |
| Time | Latitude | Longitude | Altitude | Speed | Heading |
|---|---|---|---|---|---|
| 2026-04-30 07:55 | 24.44849 | 54.64414 | 81 ft | 0 kts | 253° |
| 2026-04-30 08:15 | 24.44854 | 54.64433 | 86 ft | 4 kts | 253° |
| 2026-04-30 08:15 | 24.44860 | 54.64456 | 84 ft | 3 kts | 253° |
| 2026-04-30 08:15 | 24.44868 | 54.64484 | 84 ft | 4 kts | 253° |
| 2026-04-30 08:15 | 24.44875 | 54.64513 | 85 ft | 4 kts | 253° |
| 2026-04-30 08:16 | 24.44880 | 54.64531 | 85 ft | 3 kts | 253° |
| 2026-04-30 08:16 | 24.44864 | 54.64511 | 86 ft | 4 kts | 212° |
| 2026-04-30 08:16 | 24.44839 | 54.64508 | 85 ft | 4 kts | 172° |
| 2026-04-30 08:16 | 24.44815 | 54.64517 | 87 ft | 4 kts | 160° |
| 2026-04-30 08:17 | 24.44793 | 54.64526 | 87 ft | 1 kts | 160° |
| 2026-04-30 08:17 | 24.44792 | 54.64527 | 87 ft | 0 kts | 160° |
| 2026-04-30 08:21 | 24.44791 | 54.64527 | 87 ft | 0 kts | 160° |
| 2026-04-30 08:21 | 24.44787 | 54.64529 | 87 ft | 1 kts | 159° |
| 2026-04-30 08:21 | 24.44780 | 54.64531 | 87 ft | 1 kts | 159° |
| 2026-04-30 08:22 | 24.44771 | 54.64535 | 86 ft | 2 kts | 159° |
| 2026-04-30 08:22 | 24.44756 | 54.64542 | 86 ft | 4 kts | 159° |
| 2026-04-30 08:22 | 24.44723 | 54.64557 | 87 ft | 7 kts | 152° |
| 2026-04-30 08:22 | 24.44679 | 54.64593 | 85 ft | 9 kts | 137° |
| 2026-04-30 08:23 | 24.44631 | 54.64654 | 87 ft | 12 kts | 129° |
| 2026-04-30 08:23 | 24.44584 | 54.64726 | 87 ft | 11 kts | 108° |
| 2026-04-30 08:23 | 24.44616 | 54.64789 | 86 ft | 10 kts | 37° |
| 2026-04-30 08:23 | 24.44671 | 54.64834 | 86 ft | 10 kts | 37° |
| 2026-04-30 08:24 | 24.44725 | 54.64880 | 85 ft | 10 kts | 39° |
| 2026-04-30 08:24 | 24.44780 | 54.64927 | 86 ft | 10 kts | 37° |
| 2026-04-30 08:24 | 24.44835 | 54.64974 | 87 ft | 10 kts | 37° |
| 2026-04-30 08:24 | 24.44892 | 54.65021 | 87 ft | 10 kts | 37° |
| 2026-04-30 08:25 | 24.44948 | 54.65068 | 87 ft | 10 kts | 37° |
| 2026-04-30 08:25 | 24.45006 | 54.65117 | 86 ft | 11 kts | 38° |
| 2026-04-30 08:25 | 24.45072 | 54.65174 | 87 ft | 12 kts | 38° |
| 2026-04-30 08:25 | 24.45137 | 54.65229 | 86 ft | 10 kts | 38° |
| 2026-04-30 08:26 | 24.45138 | 54.65289 | 84 ft | 8 kts | 120° |
| 2026-04-30 08:26 | 24.45103 | 54.65339 | 87 ft | 8 kts | 128° |
| 2026-04-30 08:26 | 24.45067 | 54.65390 | 88 ft | 9 kts | 128° |
| 2026-04-30 08:26 | 24.45030 | 54.65442 | 87 ft | 9 kts | 128° |
| 2026-04-30 08:27 | 24.44988 | 54.65500 | 87 ft | 11 kts | 128° |
| 2026-04-30 08:27 | 24.44937 | 54.65571 | 87 ft | 13 kts | 128° |
| 2026-04-30 08:27 | 24.44877 | 54.65657 | 88 ft | 15 kts | 128° |
| 2026-04-30 08:27 | 24.44808 | 54.65754 | 88 ft | 17 kts | 128° |
| 2026-04-30 08:28 | 24.44737 | 54.65854 | 88 ft | 17 kts | 128° |
| 2026-04-30 08:28 | 24.44665 | 54.65955 | 89 ft | 17 kts | 128° |
| 2026-04-30 08:28 | 24.44593 | 54.66056 | 88 ft | 17 kts | 128° |
| 2026-04-30 08:28 | 24.44519 | 54.66160 | 89 ft | 17 kts | 128° |
| 2026-04-30 08:29 | 24.44445 | 54.66265 | 90 ft | 18 kts | 127° |
| 2026-04-30 08:29 | 24.44369 | 54.66371 | 89 ft | 18 kts | 128° |
| 2026-04-30 08:29 | 24.44293 | 54.66478 | 91 ft | 18 kts | 128° |
| 2026-04-30 08:29 | 24.44215 | 54.66587 | 91 ft | 18 kts | 128° |
| 2026-04-30 08:30 | 24.44136 | 54.66697 | 91 ft | 18 kts | 128° |
| 2026-04-30 08:30 | 24.44069 | 54.66792 | 90 ft | 13 kts | 128° |
| 2026-04-30 08:30 | 24.44076 | 54.66864 | 88 ft | 10 kts | 40° |
| 2026-04-30 08:30 | 24.44134 | 54.66914 | 91 ft | 11 kts | 37° |
| 2026-04-30 08:31 | 24.44199 | 54.66969 | 88 ft | 12 kts | 38° |
| 2026-04-30 08:31 | 24.44252 | 54.66991 | 86 ft | 6 kts | 341° |
| 2026-04-30 08:31 | 24.44281 | 54.66962 | 90 ft | 5 kts | 309° |
| 2026-04-30 08:31 | 24.44289 | 54.66951 | 90 ft | 0 kts | 309° |
| 2026-04-30 08:32 | 24.44290 | 54.66950 | 90 ft | 4 kts | 309° |
| 2026-04-30 08:32 | 24.44437 | 54.66745 | 90 ft | 67 kts | 308° |
| 2026-04-30 08:32 | 24.44857 | 54.66155 | 84 ft | 127 kts | 308° |
| 2026-04-30 08:32 | 24.45510 | 54.65226 | 92 ft | 179 kts | 308° |
| 2026-04-30 08:33 | 24.46267 | 54.64130 | 719 ft | 179 kts | 307° |
| 2026-04-30 08:33 | 24.47051 | 54.63057 | 1267 ft | 181 kts | 316° |
| 2026-04-30 08:33 | 24.48094 | 54.62291 | 1634 ft | 182 kts | 339° |
| 2026-04-30 08:33 | 24.49328 | 54.61859 | 1865 ft | 192 kts | 345° |
| 2026-04-30 08:34 | 24.50632 | 54.61382 | 2104 ft | 203 kts | 342° |
| 2026-04-30 08:34 | 24.51991 | 54.60823 | 2315 ft | 215 kts | 339° |
| 2026-04-30 08:34 | 24.53406 | 54.60159 | 2503 ft | 229 kts | 337° |
| 2026-04-30 08:34 | 24.54906 | 54.59421 | 2691 ft | 242 kts | 335° |
| 2026-04-30 08:35 | 24.56466 | 54.58684 | 3103 ft | 245 kts | 337° |
| 2026-04-30 08:35 | 24.58077 | 54.58042 | 3603 ft | 247 kts | 341° |
| 2026-04-30 08:35 | 24.59735 | 54.57498 | 4021 ft | 251 kts | 342° |
| 2026-04-30 08:35 | 24.61397 | 54.56868 | 4413 ft | 255 kts | 333° |
| 2026-04-30 08:36 | 24.62799 | 54.55652 | 4758 ft | 262 kts | 312° |
| 2026-04-30 08:36 | 24.63952 | 54.54102 | 5103 ft | 269 kts | 308° |
| 2026-04-30 08:36 | 24.65111 | 54.52432 | 5481 ft | 273 kts | 307° |
| 2026-04-30 08:36 | 24.66271 | 54.50756 | 5866 ft | 278 kts | 306° |
| 2026-04-30 08:37 | 24.67317 | 54.48955 | 6233 ft | 282 kts | 294° |
| 2026-04-30 08:37 | 24.68144 | 54.46984 | 6598 ft | 285 kts | 291° |
| 2026-04-30 08:37 | 24.68930 | 54.44983 | 7082 ft | 284 kts | 290° |